sensor_id;sensor_type;location;lat;lon;timestamp;P1;durP1;ratioP1;P2;durP2;ratioP2
9117;SDS011;4594;50.994;7.126;2022-12-07T00:01:19;17.23;;;11.00;;
9117;SDS011;4594;50.994;7.126;2022-12-07T00:03:51;17.33;;;12.10;;
9117;SDS011;4594;50.994;7.126;2022-12-07T00:06:21;16.80;;;12.30;;
9117;SDS011;4594;50.994;7.126;2022-12-07T00:08:48;15.10;;;10.67;;
9117;SDS011;4594;50.994;7.126;2022-12-07T00:11:15;17.10;;;10.90;;
9117;SDS011;4594;50.994;7.126;2022-12-07T00:13:44;16.70;;;12.27;;
9117;SDS011;4594;50.994;7.126;2022-12-07T00:16:15;16.30;;;12.07;;
9117;SDS011;4594;50.994;7.126;2022-12-07T00:18:44;14.57;;;11.43;;
9117;SDS011;4594;50.994;7.126;2022-12-07T00:23:41;16.40;;;12.10;;
9117;SDS011;4594;50.994;7.126;2022-12-07T00:28:46;14.80;;;11.70;;
9117;SDS011;4594;50.994;7.126;2022-12-07T00:31:21;17.03;;;11.67;;
9117;SDS011;4594;50.994;7.126;2022-12-07T00:33:49;16.10;;;12.10;;
9117;SDS011;4594;50.994;7.126;2022-12-07T00:36:17;15.33;;;11.40;;
9117;SDS011;4594;50.994;7.126;2022-12-07T00:38:45;14.97;;;10.93;;
9117;SDS011;4594;50.994;7.126;2022-12-07T00:41:13;14.90;;;11.13;;
9117;SDS011;4594;50.994;7.126;2022-12-07T00:43:41;15.43;;;11.93;;
9117;SDS011;4594;50.994;7.126;2022-12-07T00:46:09;15.00;;;11.23;;
9117;SDS011;4594;50.994;7.126;2022-12-07T00:48:37;16.70;;;11.93;;
9117;SDS011;4594;50.994;7.126;2022-12-07T00:51:03;16.87;;;12.07;;
9117;SDS011;4594;50.994;7.126;2022-12-07T00:53:30;17.63;;;12.13;;
9117;SDS011;4594;50.994;7.126;2022-12-07T00:56:04;15.73;;;12.47;;
9117;SDS011;4594;50.994;7.126;2022-12-07T00:58:34;16.53;;;11.07;;
9117;SDS011;4594;50.994;7.126;2022-12-07T01:01:00;17.13;;;11.37;;
9117;SDS011;4594;50.994;7.126;2022-12-07T01:03:28;22.43;;;11.43;;
9117;SDS011;4594;50.994;7.126;2022-12-07T01:05:55;17.93;;;12.03;;
9117;SDS011;4594;50.994;7.126;2022-12-07T01:08:22;14.00;;;10.37;;
9117;SDS011;4594;50.994;7.126;2022-12-07T01:10:57;14.80;;;11.43;;
9117;SDS011;4594;50.994;7.126;2022-12-07T01:13:28;14.30;;;10.97;;
9117;SDS011;4594;50.994;7.126;2022-12-07T01:15:58;16.97;;;11.17;;
9117;SDS011;4594;50.994;7.126;2022-12-07T01:18:27;14.13;;;11.00;;
9117;SDS011;4594;50.994;7.126;2022-12-07T01:21:02;15.67;;;11.80;;
9117;SDS011;4594;50.994;7.126;2022-12-07T01:23:37;15.37;;;11.53;;
9117;SDS011;4594;50.994;7.126;2022-12-07T01:26:05;13.93;;;10.73;;
9117;SDS011;4594;50.994;7.126;2022-12-07T01:28:36;18.20;;;12.23;;
9117;SDS011;4594;50.994;7.126;2022-12-07T01:31:06;22.87;;;12.73;;
9117;SDS011;4594;50.994;7.126;2022-12-07T01:33:40;16.47;;;12.47;;
9117;SDS011;4594;50.994;7.126;2022-12-07T01:38:58;14.83;;;10.63;;
9117;SDS011;4594;50.994;7.126;2022-12-07T01:41:28;18.53;;;11.57;;
9117;SDS011;4594;50.994;7.126;2022-12-07T01:44:08;16.43;;;11.93;;
9117;SDS011;4594;50.994;7.126;2022-12-07T01:46:46;14.47;;;11.10;;
9117;SDS011;4594;50.994;7.126;2022-12-07T01:52:09;16.77;;;11.10;;
9117;SDS011;4594;50.994;7.126;2022-12-07T01:54:56;19.37;;;10.60;;
9117;SDS011;4594;50.994;7.126;2022-12-07T01:57:27;16.20;;;12.03;;
9117;SDS011;4594;50.994;7.126;2022-12-07T01:59:55;15.40;;;11.83;;
9117;SDS011;4594;50.994;7.126;2022-12-07T02:02:24;15.63;;;11.67;;
9117;SDS011;4594;50.994;7.126;2022-12-07T02:04:54;17.77;;;11.93;;
9117;SDS011;4594;50.994;7.126;2022-12-07T02:07:23;15.63;;;12.50;;
9117;SDS011;4594;50.994;7.126;2022-12-07T02:09:51;16.47;;;12.13;;
9117;SDS011;4594;50.994;7.126;2022-12-07T02:12:17;16.80;;;12.60;;
9117;SDS011;4594;50.994;7.126;2022-12-07T02:14:43;17.83;;;13.20;;
9117;SDS011;4594;50.994;7.126;2022-12-07T02:37:29;16.00;;;12.07;;
9117;SDS011;4594;50.994;7.126;2022-12-07T02:43:19;17.07;;;12.20;;
9117;SDS011;4594;50.994;7.126;2022-12-07T02:46:20;16.07;;;12.47;;
9117;SDS011;4594;50.994;7.126;2022-12-07T02:48:51;17.27;;;13.17;;
9117;SDS011;4594;50.994;7.126;2022-12-07T02:51:20;23.67;;;14.97;;
9117;SDS011;4594;50.994;7.126;2022-12-07T02:53:47;21.03;;;14.07;;
9117;SDS011;4594;50.994;7.126;2022-12-07T03:05:31;13.53;;;11.67;;
9117;SDS011;4594;50.994;7.126;2022-12-07T03:12:02;18.53;;;13.53;;
9117;SDS011;4594;50.994;7.126;2022-12-07T03:14:57;19.83;;;12.40;;
9117;SDS011;4594;50.994;7.126;2022-12-07T03:17:37;23.77;;;13.90;;
9117;SDS011;4594;50.994;7.126;2022-12-07T03:20:09;19.03;;;13.20;;
9117;SDS011;4594;50.994;7.126;2022-12-07T03:22:43;18.57;;;13.67;;
9117;SDS011;4594;50.994;7.126;2022-12-07T03:25:13;23.63;;;14.63;;
9117;SDS011;4594;50.994;7.126;2022-12-07T03:27:48;19.50;;;14.37;;
9117;SDS011;4594;50.994;7.126;2022-12-07T03:30:33;18.40;;;13.60;;
9117;SDS011;4594;50.994;7.126;2022-12-07T03:33:39;20.13;;;14.43;;
9117;SDS011;4594;50.994;7.126;2022-12-07T03:36:26;26.83;;;14.93;;
9117;SDS011;4594;50.994;7.126;2022-12-07T03:39:25;20.57;;;14.50;;
9117;SDS011;4594;50.994;7.126;2022-12-07T03:42:09;20.93;;;13.73;;
9117;SDS011;4594;50.994;7.126;2022-12-07T03:44:36;19.50;;;14.10;;
9117;SDS011;4594;50.994;7.126;2022-12-07T03:47:24;22.87;;;14.53;;
9117;SDS011;4594;50.994;7.126;2022-12-07T03:50:02;20.93;;;13.87;;
9117;SDS011;4594;50.994;7.126;2022-12-07T03:53:02;24.97;;;14.47;;
9117;SDS011;4594;50.994;7.126;2022-12-07T03:55:50;23.03;;;14.07;;
9117;SDS011;4594;50.994;7.126;2022-12-07T03:58:19;19.47;;;14.13;;
9117;SDS011;4594;50.994;7.126;2022-12-07T04:00:47;23.53;;;15.83;;
9117;SDS011;4594;50.994;7.126;2022-12-07T04:03:15;26.27;;;15.90;;
9117;SDS011;4594;50.994;7.126;2022-12-07T04:05:41;22.40;;;15.70;;
9117;SDS011;4594;50.994;7.126;2022-12-07T04:08:08;19.37;;;13.93;;
9117;SDS011;4594;50.994;7.126;2022-12-07T04:10:34;20.33;;;14.63;;
9117;SDS011;4594;50.994;7.126;2022-12-07T04:13:00;18.80;;;14.73;;
9117;SDS011;4594;50.994;7.126;2022-12-07T04:15:26;19.33;;;14.03;;
9117;SDS011;4594;50.994;7.126;2022-12-07T04:17:52;22.00;;;14.30;;
9117;SDS011;4594;50.994;7.126;2022-12-07T04:20:18;18.83;;;14.50;;
9117;SDS011;4594;50.994;7.126;2022-12-07T04:22:44;22.63;;;15.27;;
9117;SDS011;4594;50.994;7.126;2022-12-07T04:25:11;19.77;;;14.77;;
9117;SDS011;4594;50.994;7.126;2022-12-07T04:27:37;19.10;;;14.57;;
9117;SDS011;4594;50.994;7.126;2022-12-07T04:30:02;20.80;;;15.83;;
9117;SDS011;4594;50.994;7.126;2022-12-07T04:32:29;21.67;;;15.17;;
9117;SDS011;4594;50.994;7.126;2022-12-07T04:34:55;19.97;;;15.00;;
9117;SDS011;4594;50.994;7.126;2022-12-07T04:37:20;20.40;;;15.03;;
9117;SDS011;4594;50.994;7.126;2022-12-07T04:39:47;20.03;;;13.40;;
9117;SDS011;4594;50.994;7.126;2022-12-07T04:42:12;24.67;;;14.43;;
9117;SDS011;4594;50.994;7.126;2022-12-07T04:44:38;19.90;;;15.23;;
9117;SDS011;4594;50.994;7.126;2022-12-07T04:47:04;19.33;;;14.20;;
9117;SDS011;4594;50.994;7.126;2022-12-07T04:49:29;23.83;;;14.43;;
9117;SDS011;4594;50.994;7.126;2022-12-07T04:51:55;18.60;;;12.73;;
9117;SDS011;4594;50.994;7.126;2022-12-07T04:54:21;17.87;;;12.97;;
9117;SDS011;4594;50.994;7.126;2022-12-07T04:56:47;18.97;;;14.20;;
9117;SDS011;4594;50.994;7.126;2022-12-07T04:59:13;19.00;;;14.53;;
9117;SDS011;4594;50.994;7.126;2022-12-07T05:01:41;20.00;;;14.80;;
9117;SDS011;4594;50.994;7.126;2022-12-07T05:04:07;19.30;;;14.77;;
9117;SDS011;4594;50.994;7.126;2022-12-07T05:06:33;16.73;;;13.13;;
9117;SDS011;4594;50.994;7.126;2022-12-07T05:09:00;21.77;;;14.63;;
9117;SDS011;4594;50.994;7.126;2022-12-07T05:11:26;22.13;;;15.37;;
9117;SDS011;4594;50.994;7.126;2022-12-07T05:14:04;22.50;;;14.67;;
9117;SDS011;4594;50.994;7.126;2022-12-07T05:16:37;18.97;;;14.10;;
9117;SDS011;4594;50.994;7.126;2022-12-07T05:19:04;21.23;;;14.67;;
9117;SDS011;4594;50.994;7.126;2022-12-07T05:21:31;19.27;;;14.03;;
9117;SDS011;4594;50.994;7.126;2022-12-07T05:23:57;18.77;;;13.63;;
9117;SDS011;4594;50.994;7.126;2022-12-07T05:26:22;22.27;;;14.73;;
9117;SDS011;4594;50.994;7.126;2022-12-07T05:28:50;18.23;;;14.37;;
9117;SDS011;4594;50.994;7.126;2022-12-07T05:31:20;21.27;;;13.97;;
9117;SDS011;4594;50.994;7.126;2022-12-07T05:33:48;17.13;;;13.03;;
9117;SDS011;4594;50.994;7.126;2022-12-07T05:36:14;21.23;;;14.63;;
9117;SDS011;4594;50.994;7.126;2022-12-07T05:38:39;15.97;;;11.97;;
9117;SDS011;4594;50.994;7.126;2022-12-07T05:41:06;18.80;;;13.17;;
9117;SDS011;4594;50.994;7.126;2022-12-07T05:43:53;15.07;;;11.23;;
9117;SDS011;4594;50.994;7.126;2022-12-07T05:46:20;18.73;;;12.80;;
9117;SDS011;4594;50.994;7.126;2022-12-07T05:48:46;19.10;;;12.63;;
9117;SDS011;4594;50.994;7.126;2022-12-07T05:51:11;18.07;;;13.27;;
9117;SDS011;4594;50.994;7.126;2022-12-07T05:53:37;17.00;;;13.10;;
9117;SDS011;4594;50.994;7.126;2022-12-07T05:56:03;26.33;;;13.43;;
9117;SDS011;4594;50.994;7.126;2022-12-07T05:58:29;17.13;;;12.03;;
9117;SDS011;4594;50.994;7.126;2022-12-07T06:01:13;19.83;;;12.53;;
9117;SDS011;4594;50.994;7.126;2022-12-07T06:03:39;17.70;;;11.77;;
9117;SDS011;4594;50.994;7.126;2022-12-07T06:06:05;19.60;;;12.67;;
9117;SDS011;4594;50.994;7.126;2022-12-07T06:08:30;17.23;;;11.97;;
9117;SDS011;4594;50.994;7.126;2022-12-07T06:10:56;16.00;;;11.90;;
9117;SDS011;4594;50.994;7.126;2022-12-07T06:13:40;17.27;;;13.20;;
9117;SDS011;4594;50.994;7.126;2022-12-07T06:16:05;18.73;;;12.37;;
9117;SDS011;4594;50.994;7.126;2022-12-07T06:18:32;18.23;;;13.47;;
9117;SDS011;4594;50.994;7.126;2022-12-07T06:20:58;17.43;;;13.03;;
9117;SDS011;4594;50.994;7.126;2022-12-07T06:23:24;15.17;;;12.27;;
9117;SDS011;4594;50.994;7.126;2022-12-07T06:25:50;15.47;;;11.70;;
9117;SDS011;4594;50.994;7.126;2022-12-07T06:28:15;16.83;;;11.93;;
9117;SDS011;4594;50.994;7.126;2022-12-07T06:30:41;16.07;;;11.37;;
9117;SDS011;4594;50.994;7.126;2022-12-07T06:33:07;18.17;;;12.27;;
9117;SDS011;4594;50.994;7.126;2022-12-07T06:35:33;15.43;;;12.17;;
9117;SDS011;4594;50.994;7.126;2022-12-07T06:37:58;17.60;;;11.70;;
9117;SDS011;4594;50.994;7.126;2022-12-07T06:40:24;15.90;;;11.30;;
9117;SDS011;4594;50.994;7.126;2022-12-07T06:42:50;14.33;;;11.23;;
9117;SDS011;4594;50.994;7.126;2022-12-07T06:45:15;13.73;;;11.23;;
9117;SDS011;4594;50.994;7.126;2022-12-07T06:47:41;15.37;;;10.83;;
9117;SDS011;4594;50.994;7.126;2022-12-07T06:50:07;15.30;;;10.83;;
9117;SDS011;4594;50.994;7.126;2022-12-07T06:52:33;15.33;;;10.87;;
9117;SDS011;4594;50.994;7.126;2022-12-07T06:54:59;13.37;;;10.90;;
9117;SDS011;4594;50.994;7.126;2022-12-07T06:57:25;14.43;;;11.50;;
9117;SDS011;4594;50.994;7.126;2022-12-07T06:59:51;12.83;;;10.47;;
9117;SDS011;4594;50.994;7.126;2022-12-07T07:02:17;15.47;;;11.47;;
9117;SDS011;4594;50.994;7.126;2022-12-07T07:04:43;16.37;;;10.60;;
9117;SDS011;4594;50.994;7.126;2022-12-07T07:07:08;14.23;;;10.97;;
9117;SDS011;4594;50.994;7.126;2022-12-07T07:09:34;12.80;;;10.30;;
9117;SDS011;4594;50.994;7.126;2022-12-07T07:12:00;15.03;;;10.67;;
9117;SDS011;4594;50.994;7.126;2022-12-07T07:14:26;12.23;;;10.40;;
9117;SDS011;4594;50.994;7.126;2022-12-07T07:16:51;12.90;;;9.97;;
9117;SDS011;4594;50.994;7.126;2022-12-07T07:19:17;18.13;;;11.23;;
9117;SDS011;4594;50.994;7.126;2022-12-07T07:21:43;14.93;;;11.17;;
9117;SDS011;4594;50.994;7.126;2022-12-07T07:24:09;16.13;;;11.70;;
9117;SDS011;4594;50.994;7.126;2022-12-07T07:26:34;12.53;;;10.57;;
9117;SDS011;4594;50.994;7.126;2022-12-07T07:29:00;12.40;;;10.67;;
9117;SDS011;4594;50.994;7.126;2022-12-07T07:31:25;16.37;;;11.37;;
9117;SDS011;4594;50.994;7.126;2022-12-07T07:33:51;16.83;;;12.27;;
9117;SDS011;4594;50.994;7.126;2022-12-07T07:36:17;16.60;;;11.53;;
9117;SDS011;4594;50.994;7.126;2022-12-07T07:38:43;16.50;;;12.03;;
9117;SDS011;4594;50.994;7.126;2022-12-07T07:41:09;14.90;;;11.43;;
9117;SDS011;4594;50.994;7.126;2022-12-07T07:43:34;16.87;;;12.93;;
9117;SDS011;4594;50.994;7.126;2022-12-07T07:46:00;17.80;;;12.33;;
9117;SDS011;4594;50.994;7.126;2022-12-07T07:48:26;16.37;;;11.77;;
9117;SDS011;4594;50.994;7.126;2022-12-07T07:50:51;18.13;;;13.23;;
9117;SDS011;4594;50.994;7.126;2022-12-07T07:53:17;17.37;;;12.17;;
9117;SDS011;4594;50.994;7.126;2022-12-07T07:55:52;16.57;;;11.50;;
9117;SDS011;4594;50.994;7.126;2022-12-07T07:58:20;17.93;;;12.27;;
9117;SDS011;4594;50.994;7.126;2022-12-07T08:00:46;15.80;;;11.83;;
9117;SDS011;4594;50.994;7.126;2022-12-07T08:03:12;18.07;;;11.67;;
9117;SDS011;4594;50.994;7.126;2022-12-07T08:05:37;19.53;;;12.17;;
9117;SDS011;4594;50.994;7.126;2022-12-07T08:08:03;15.77;;;12.27;;
9117;SDS011;4594;50.994;7.126;2022-12-07T08:10:29;17.47;;;12.27;;
9117;SDS011;4594;50.994;7.126;2022-12-07T08:12:57;15.57;;;11.20;;
9117;SDS011;4594;50.994;7.126;2022-12-07T08:15:41;14.83;;;11.23;;
9117;SDS011;4594;50.994;7.126;2022-12-07T08:18:11;16.87;;;11.27;;
9117;SDS011;4594;50.994;7.126;2022-12-07T08:20:38;15.77;;;11.83;;
9117;SDS011;4594;50.994;7.126;2022-12-07T08:23:05;15.33;;;12.03;;
9117;SDS011;4594;50.994;7.126;2022-12-07T08:25:32;15.20;;;11.47;;
9117;SDS011;4594;50.994;7.126;2022-12-07T08:27:58;16.90;;;11.53;;
9117;SDS011;4594;50.994;7.126;2022-12-07T08:30:25;15.60;;;12.50;;
9117;SDS011;4594;50.994;7.126;2022-12-07T08:32:52;14.07;;;11.40;;
9117;SDS011;4594;50.994;7.126;2022-12-07T08:35:17;18.23;;;11.77;;
9117;SDS011;4594;50.994;7.126;2022-12-07T08:37:43;17.10;;;12.03;;
9117;SDS011;4594;50.994;7.126;2022-12-07T08:40:11;14.33;;;11.67;;
9117;SDS011;4594;50.994;7.126;2022-12-07T08:42:41;18.93;;;12.40;;
9117;SDS011;4594;50.994;7.126;2022-12-07T08:45:10;16.87;;;11.13;;
9117;SDS011;4594;50.994;7.126;2022-12-07T08:47:40;16.33;;;11.00;;
9117;SDS011;4594;50.994;7.126;2022-12-07T08:50:11;19.17;;;11.87;;
9117;SDS011;4594;50.994;7.126;2022-12-07T08:52:38;14.50;;;11.67;;
9117;SDS011;4594;50.994;7.126;2022-12-07T08:55:06;16.63;;;11.53;;
9117;SDS011;4594;50.994;7.126;2022-12-07T08:57:35;13.57;;;10.90;;
9117;SDS011;4594;50.994;7.126;2022-12-07T09:00:02;18.13;;;12.30;;
9117;SDS011;4594;50.994;7.126;2022-12-07T09:02:30;16.47;;;12.03;;
9117;SDS011;4594;50.994;7.126;2022-12-07T09:04:57;15.67;;;11.57;;
9117;SDS011;4594;50.994;7.126;2022-12-07T09:07:22;17.10;;;12.40;;
9117;SDS011;4594;50.994;7.126;2022-12-07T09:09:50;16.33;;;12.07;;
9117;SDS011;4594;50.994;7.126;2022-12-07T09:12:15;17.03;;;12.87;;
9117;SDS011;4594;50.994;7.126;2022-12-07T09:14:41;18.13;;;12.40;;
9117;SDS011;4594;50.994;7.126;2022-12-07T09:17:07;14.77;;;11.60;;
9117;SDS011;4594;50.994;7.126;2022-12-07T09:19:35;15.53;;;11.80;;
9117;SDS011;4594;50.994;7.126;2022-12-07T09:22:02;13.87;;;11.40;;
9117;SDS011;4594;50.994;7.126;2022-12-07T09:24:29;17.40;;;12.20;;
9117;SDS011;4594;50.994;7.126;2022-12-07T09:26:56;19.47;;;12.00;;
9117;SDS011;4594;50.994;7.126;2022-12-07T09:29:22;16.83;;;11.67;;
9117;SDS011;4594;50.994;7.126;2022-12-07T09:31:48;16.87;;;11.67;;
9117;SDS011;4594;50.994;7.126;2022-12-07T09:34:14;21.10;;;12.50;;
9117;SDS011;4594;50.994;7.126;2022-12-07T09:36:39;15.97;;;11.83;;
9117;SDS011;4594;50.994;7.126;2022-12-07T09:39:05;16.93;;;12.60;;
9117;SDS011;4594;50.994;7.126;2022-12-07T09:41:31;18.07;;;11.83;;
9117;SDS011;4594;50.994;7.126;2022-12-07T09:44:02;14.50;;;11.90;;
9117;SDS011;4594;50.994;7.126;2022-12-07T09:46:35;16.37;;;12.03;;
9117;SDS011;4594;50.994;7.126;2022-12-07T09:49:05;17.10;;;12.57;;
9117;SDS011;4594;50.994;7.126;2022-12-07T09:51:37;15.97;;;11.90;;
9117;SDS011;4594;50.994;7.126;2022-12-07T09:54:03;24.83;;;12.50;;
9117;SDS011;4594;50.994;7.126;2022-12-07T09:56:29;22.87;;;12.83;;
9117;SDS011;4594;50.994;7.126;2022-12-07T09:58:59;17.90;;;12.33;;
9117;SDS011;4594;50.994;7.126;2022-12-07T10:01:28;18.57;;;12.03;;
9117;SDS011;4594;50.994;7.126;2022-12-07T10:04:05;17.17;;;12.40;;
9117;SDS011;4594;50.994;7.126;2022-12-07T10:06:47;16.87;;;11.70;;
9117;SDS011;4594;50.994;7.126;2022-12-07T10:09:16;13.73;;;11.43;;
9117;SDS011;4594;50.994;7.126;2022-12-07T10:14:35;13.53;;;10.00;;
9117;SDS011;4594;50.994;7.126;2022-12-07T10:20:28;14.33;;;11.27;;
9117;SDS011;4594;50.994;7.126;2022-12-07T10:22:57;19.23;;;11.23;;
9117;SDS011;4594;50.994;7.126;2022-12-07T10:25:26;16.60;;;10.67;;
9117;SDS011;4594;50.994;7.126;2022-12-07T10:28:19;14.37;;;11.23;;
9117;SDS011;4594;50.994;7.126;2022-12-07T10:30:55;13.77;;;10.87;;
9117;SDS011;4594;50.994;7.126;2022-12-07T10:33:50;13.47;;;10.23;;
9117;SDS011;4594;50.994;7.126;2022-12-07T10:39:11;14.30;;;10.27;;
9117;SDS011;4594;50.994;7.126;2022-12-07T10:41:54;13.97;;;9.70;;
9117;SDS011;4594;50.994;7.126;2022-12-07T10:44:29;11.83;;;8.67;;
9117;SDS011;4594;50.994;7.126;2022-12-07T10:58:13;9.80;;;8.23;;
9117;SDS011;4594;50.994;7.126;2022-12-07T11:01:13;10.70;;;9.03;;
9117;SDS011;4594;50.994;7.126;2022-12-07T11:07:04;14.13;;;8.40;;
9117;SDS011;4594;50.994;7.126;2022-12-07T11:09:47;26.03;;;9.00;;
9117;SDS011;4594;50.994;7.126;2022-12-07T11:18:23;13.17;;;8.07;;
9117;SDS011;4594;50.994;7.126;2022-12-07T11:29:58;9.63;;;7.10;;
9117;SDS011;4594;50.994;7.126;2022-12-07T11:38:08;11.17;;;6.80;;
9117;SDS011;4594;50.994;7.126;2022-12-07T11:40:48;9.83;;;7.33;;
9117;SDS011;4594;50.994;7.126;2022-12-07T11:43:21;9.80;;;6.30;;
9117;SDS011;4594;50.994;7.126;2022-12-07T11:48:35;8.33;;;6.07;;
9117;SDS011;4594;50.994;7.126;2022-12-07T11:51:15;9.10;;;6.77;;
9117;SDS011;4594;50.994;7.126;2022-12-07T11:56:27;8.93;;;5.80;;
9117;SDS011;4594;50.994;7.126;2022-12-07T12:01:53;8.23;;;5.73;;
9117;SDS011;4594;50.994;7.126;2022-12-07T12:04:35;7.67;;;5.53;;
9117;SDS011;4594;50.994;7.126;2022-12-07T12:07:27;9.67;;;5.67;;
9117;SDS011;4594;50.994;7.126;2022-12-07T12:09:54;7.57;;;5.30;;
9117;SDS011;4594;50.994;7.126;2022-12-07T12:15:23;5.87;;;4.57;;
9117;SDS011;4594;50.994;7.126;2022-12-07T12:21:23;6.47;;;5.23;;
9117;SDS011;4594;50.994;7.126;2022-12-07T12:24:02;7.10;;;5.47;;
9117;SDS011;4594;50.994;7.126;2022-12-07T12:26:40;5.83;;;5.00;;
9117;SDS011;4594;50.994;7.126;2022-12-07T12:29:27;9.03;;;5.50;;
9117;SDS011;4594;50.994;7.126;2022-12-07T12:32:13;9.20;;;5.33;;
9117;SDS011;4594;50.994;7.126;2022-12-07T12:42:56;6.70;;;5.87;;
9117;SDS011;4594;50.994;7.126;2022-12-07T12:45:23;6.97;;;5.50;;
9117;SDS011;4594;50.994;7.126;2022-12-07T12:47:54;10.73;;;5.93;;
9117;SDS011;4594;50.994;7.126;2022-12-07T12:50:37;9.50;;;5.73;;
9117;SDS011;4594;50.994;7.126;2022-12-07T12:53:05;6.73;;;5.30;;
9117;SDS011;4594;50.994;7.126;2022-12-07T12:55:58;7.17;;;5.57;;
9117;SDS011;4594;50.994;7.126;2022-12-07T12:59:18;6.43;;;5.83;;
9117;SDS011;4594;50.994;7.126;2022-12-07T13:01:51;7.53;;;5.50;;
9117;SDS011;4594;50.994;7.126;2022-12-07T13:10:24;9.23;;;6.20;;
9117;SDS011;4594;50.994;7.126;2022-12-07T13:13:00;9.47;;;6.37;;
9117;SDS011;4594;50.994;7.126;2022-12-07T13:15:45;8.60;;;6.17;;
9117;SDS011;4594;50.994;7.126;2022-12-07T13:20:56;10.03;;;6.73;;
9117;SDS011;4594;50.994;7.126;2022-12-07T13:34:36;12.80;;;7.17;;
9117;SDS011;4594;50.994;7.126;2022-12-07T13:39:57;8.47;;;5.97;;
9117;SDS011;4594;50.994;7.126;2022-12-07T13:42:37;9.17;;;6.63;;
9117;SDS011;4594;50.994;7.126;2022-12-07T13:45:26;6.70;;;5.93;;
9117;SDS011;4594;50.994;7.126;2022-12-07T13:48:36;12.37;;;6.47;;
9117;SDS011;4594;50.994;7.126;2022-12-07T13:51:18;13.70;;;6.37;;
9117;SDS011;4594;50.994;7.126;2022-12-07T13:53:49;6.20;;;5.50;;
9117;SDS011;4594;50.994;7.126;2022-12-07T13:56:33;9.17;;;5.37;;
9117;SDS011;4594;50.994;7.126;2022-12-07T13:59:01;9.43;;;5.20;;
9117;SDS011;4594;50.994;7.126;2022-12-07T14:01:28;7.10;;;5.47;;
9117;SDS011;4594;50.994;7.126;2022-12-07T14:04:16;5.73;;;4.97;;
9117;SDS011;4594;50.994;7.126;2022-12-07T14:06:55;7.30;;;5.40;;
9117;SDS011;4594;50.994;7.126;2022-12-07T14:09:22;12.83;;;6.90;;
9117;SDS011;4594;50.994;7.126;2022-12-07T14:11:51;8.70;;;5.97;;
9117;SDS011;4594;50.994;7.126;2022-12-07T14:14:26;7.50;;;6.10;;
9117;SDS011;4594;50.994;7.126;2022-12-07T14:17:15;9.23;;;6.67;;
9117;SDS011;4594;50.994;7.126;2022-12-07T14:19:50;13.70;;;7.40;;
9117;SDS011;4594;50.994;7.126;2022-12-07T14:22:29;8.10;;;6.67;;
9117;SDS011;4594;50.994;7.126;2022-12-07T14:28:01;9.73;;;6.77;;
9117;SDS011;4594;50.994;7.126;2022-12-07T14:30:30;11.60;;;6.63;;
9117;SDS011;4594;50.994;7.126;2022-12-07T14:33:03;11.23;;;6.43;;
9117;SDS011;4594;50.994;7.126;2022-12-07T14:35:30;10.30;;;6.77;;
9117;SDS011;4594;50.994;7.126;2022-12-07T14:37:57;9.93;;;6.97;;
9117;SDS011;4594;50.994;7.126;2022-12-07T14:40:24;8.37;;;6.57;;
9117;SDS011;4594;50.994;7.126;2022-12-07T14:43:16;9.40;;;6.80;;
9117;SDS011;4594;50.994;7.126;2022-12-07T14:45:42;13.47;;;7.47;;
9117;SDS011;4594;50.994;7.126;2022-12-07T14:48:12;12.50;;;6.40;;
9117;SDS011;4594;50.994;7.126;2022-12-07T14:50:41;9.23;;;6.60;;
9117;SDS011;4594;50.994;7.126;2022-12-07T14:53:15;10.80;;;6.87;;
9117;SDS011;4594;50.994;7.126;2022-12-07T14:55:47;11.00;;;7.20;;
9117;SDS011;4594;50.994;7.126;2022-12-07T14:58:16;11.10;;;7.23;;
9117;SDS011;4594;50.994;7.126;2022-12-07T15:00:43;11.47;;;7.50;;
9117;SDS011;4594;50.994;7.126;2022-12-07T15:03:10;12.50;;;7.40;;
9117;SDS011;4594;50.994;7.126;2022-12-07T15:05:37;12.00;;;6.97;;
9117;SDS011;4594;50.994;7.126;2022-12-07T15:08:04;9.57;;;6.77;;
9117;SDS011;4594;50.994;7.126;2022-12-07T15:10:31;7.50;;;6.43;;
9117;SDS011;4594;50.994;7.126;2022-12-07T15:12:59;12.33;;;7.80;;
9117;SDS011;4594;50.994;7.126;2022-12-07T15:15:46;10.83;;;6.60;;
9117;SDS011;4594;50.994;7.126;2022-12-07T15:18:13;9.80;;;7.10;;
9117;SDS011;4594;50.994;7.126;2022-12-07T15:20:40;12.80;;;7.80;;
9117;SDS011;4594;50.994;7.126;2022-12-07T15:23:05;9.17;;;7.00;;
9117;SDS011;4594;50.994;7.126;2022-12-07T15:25:32;12.97;;;7.20;;
9117;SDS011;4594;50.994;7.126;2022-12-07T15:27:58;8.37;;;6.60;;
9117;SDS011;4594;50.994;7.126;2022-12-07T15:30:24;9.73;;;7.27;;
9117;SDS011;4594;50.994;7.126;2022-12-07T15:32:50;10.40;;;7.13;;
9117;SDS011;4594;50.994;7.126;2022-12-07T15:35:16;10.07;;;7.10;;
9117;SDS011;4594;50.994;7.126;2022-12-07T15:37:42;7.60;;;6.33;;
9117;SDS011;4594;50.994;7.126;2022-12-07T15:40:08;8.23;;;6.90;;
9117;SDS011;4594;50.994;7.126;2022-12-07T15:42:35;11.60;;;7.90;;
9117;SDS011;4594;50.994;7.126;2022-12-07T15:45:01;8.07;;;7.03;;
9117;SDS011;4594;50.994;7.126;2022-12-07T15:47:30;8.37;;;6.53;;
9117;SDS011;4594;50.994;7.126;2022-12-07T15:50:02;8.00;;;6.30;;
9117;SDS011;4594;50.994;7.126;2022-12-07T15:52:30;6.43;;;5.83;;
9117;SDS011;4594;50.994;7.126;2022-12-07T15:54:56;8.20;;;5.13;;
9117;SDS011;4594;50.994;7.126;2022-12-07T15:57:22;5.10;;;4.67;;
9117;SDS011;4594;50.994;7.126;2022-12-07T15:59:48;5.27;;;4.80;;
9117;SDS011;4594;50.994;7.126;2022-12-07T16:02:13;4.40;;;4.10;;
9117;SDS011;4594;50.994;7.126;2022-12-07T16:04:39;5.33;;;3.70;;
9117;SDS011;4594;50.994;7.126;2022-12-07T16:07:05;4.03;;;3.70;;
9117;SDS011;4594;50.994;7.126;2022-12-07T16:09:31;4.43;;;3.50;;
9117;SDS011;4594;50.994;7.126;2022-12-07T16:11:57;3.87;;;3.57;;
9117;SDS011;4594;50.994;7.126;2022-12-07T16:14:22;3.80;;;3.40;;
9117;SDS011;4594;50.994;7.126;2022-12-07T16:16:48;4.30;;;3.90;;
9117;SDS011;4594;50.994;7.126;2022-12-07T16:19:14;4.13;;;3.90;;
9117;SDS011;4594;50.994;7.126;2022-12-07T16:21:40;4.93;;;3.67;;
9117;SDS011;4594;50.994;7.126;2022-12-07T16:24:07;8.70;;;3.83;;
9117;SDS011;4594;50.994;7.126;2022-12-07T16:26:35;4.40;;;4.10;;
9117;SDS011;4594;50.994;7.126;2022-12-07T16:29:00;7.53;;;4.03;;
9117;SDS011;4594;50.994;7.126;2022-12-07T16:31:26;8.33;;;4.53;;
9117;SDS011;4594;50.994;7.126;2022-12-07T16:33:54;4.50;;;4.07;;
9117;SDS011;4594;50.994;7.126;2022-12-07T16:36:22;4.57;;;4.27;;
9117;SDS011;4594;50.994;7.126;2022-12-07T16:38:50;6.03;;;5.33;;
9117;SDS011;4594;50.994;7.126;2022-12-07T16:41:15;7.17;;;5.13;;
9117;SDS011;4594;50.994;7.126;2022-12-07T16:43:41;5.00;;;4.33;;
9117;SDS011;4594;50.994;7.126;2022-12-07T16:46:07;5.00;;;4.50;;
9117;SDS011;4594;50.994;7.126;2022-12-07T16:48:36;5.77;;;5.17;;
9117;SDS011;4594;50.994;7.126;2022-12-07T16:51:05;8.93;;;5.07;;
9117;SDS011;4594;50.994;7.126;2022-12-07T16:53:37;5.37;;;4.87;;
9117;SDS011;4594;50.994;7.126;2022-12-07T16:56:12;6.17;;;5.10;;
9117;SDS011;4594;50.994;7.126;2022-12-07T16:58:41;6.67;;;5.30;;
9117;SDS011;4594;50.994;7.126;2022-12-07T17:01:08;9.13;;;5.67;;
9117;SDS011;4594;50.994;7.126;2022-12-07T17:03:36;6.70;;;5.53;;
9117;SDS011;4594;50.994;7.126;2022-12-07T17:06:02;5.77;;;5.27;;
9117;SDS011;4594;50.994;7.126;2022-12-07T17:08:28;12.47;;;5.50;;
9117;SDS011;4594;50.994;7.126;2022-12-07T17:10:53;6.40;;;5.00;;
9117;SDS011;4594;50.994;7.126;2022-12-07T17:13:19;6.30;;;5.70;;
9117;SDS011;4594;50.994;7.126;2022-12-07T17:16:04;6.20;;;5.60;;
9117;SDS011;4594;50.994;7.126;2022-12-07T17:18:34;6.23;;;5.63;;
9117;SDS011;4594;50.994;7.126;2022-12-07T17:21:04;6.33;;;5.73;;
9117;SDS011;4594;50.994;7.126;2022-12-07T17:23:32;6.63;;;6.03;;
9117;SDS011;4594;50.994;7.126;2022-12-07T17:26:10;8.07;;;6.57;;
9117;SDS011;4594;50.994;7.126;2022-12-07T17:28:40;9.00;;;6.23;;
9117;SDS011;4594;50.994;7.126;2022-12-07T17:31:07;7.00;;;6.03;;
9117;SDS011;4594;50.994;7.126;2022-12-07T17:33:35;8.57;;;6.00;;
9117;SDS011;4594;50.994;7.126;2022-12-07T17:36:09;8.43;;;6.47;;